createdAt,value
2019-02-10T14:28:13.629Z,48.156738
2019-02-10T14:28:21.500Z,48.052979
2019-02-10T14:28:29.437Z,48.052979
2019-02-10T14:28:37.337Z,48.254395
2019-02-10T14:28:45.232Z,48.254395
2019-02-10T14:28:53.101Z,48.254395
2019-02-10T14:29:01.024Z,48.254395
2019-02-10T14:29:09.970Z,48.156738
2019-02-10T14:29:17.880Z,48.156738
2019-02-10T14:29:26.804Z,48.156738
2019-02-10T14:29:34.710Z,48.156738
2019-02-10T14:29:42.592Z,48.156738
2019-02-10T14:29:50.660Z,48.156738
2019-02-10T14:29:58.567Z,48.156738
2019-02-10T14:30:06.467Z,48.156738
2019-02-10T14:30:14.363Z,48.156738
2019-02-10T14:30:23.356Z,48.156738
2019-02-10T14:30:31.158Z,48.156738
2019-02-10T14:30:39.054Z,48.254395
2019-02-10T14:30:46.943Z,48.254395
2019-02-10T14:30:54.891Z,48.254395
2019-02-10T14:31:02.735Z,48.254395
2019-02-10T14:31:10.654Z,48.254395
2019-02-10T14:31:18.544Z,48.254395
2019-02-10T14:31:26.414Z,48.254395
2019-02-10T14:31:34.319Z,48.254395
2019-02-10T14:31:42.243Z,48.254395
2019-02-10T14:31:51.121Z,48.254395
2019-02-10T14:31:59.044Z,48.254395
2019-02-10T14:32:06.952Z,48.254395
2019-02-10T14:32:14.855Z,48.254395
2019-02-10T14:32:22.799Z,48.254395
2019-02-10T14:32:30.722Z,48.156738
2019-02-10T14:32:38.579Z,48.156738
2019-02-10T14:32:46.474Z,48.254395
2019-02-10T14:32:54.478Z,48.254395
2019-02-10T14:33:02.390Z,48.254395
2019-02-10T14:33:10.263Z,48.254395
2019-02-10T14:33:18.133Z,48.254395
2019-02-10T14:33:26.078Z,48.254395
2019-02-10T14:33:38.800Z,48.254395
2019-02-10T14:33:45.877Z,48.254395
2019-02-10T14:33:53.763Z,48.254395
2019-02-10T14:34:03.300Z,48.254395
2019-02-10T14:34:12.279Z,48.254395
2019-02-10T14:34:19.439Z,48.254395
2019-02-10T14:34:27.354Z,48.254395
2019-02-10T14:34:35.313Z,48.254395
2019-02-10T14:34:43.204Z,48.254395
2019-02-10T14:34:52.107Z,48.254395
2019-02-10T14:34:59.992Z,48.254395
2019-02-10T14:35:07.867Z,48.254395
2019-02-10T14:35:16.760Z,48.254395
2019-02-10T14:35:24.635Z,48.254395
2019-02-10T14:35:32.590Z,48.254395
2019-02-10T14:35:40.538Z,48.254395
2019-02-10T14:35:48.440Z,48.254395
2019-02-10T14:35:57.323Z,48.156738
2019-02-10T14:36:05.189Z,48.156738
2019-02-10T14:36:14.129Z,48.156738
2019-02-10T14:36:22.021Z,48.156738
2019-02-10T14:36:29.904Z,48.156738
2019-02-10T14:36:38.818Z,48.156738
2019-02-10T14:36:47.704Z,48.156738
2019-02-10T14:36:55.622Z,48.156738
2019-02-10T14:37:03.510Z,48.156738
2019-02-10T14:37:11.448Z,48.156738
2019-02-10T14:37:20.339Z,48.052979
2019-02-10T14:37:30.226Z,48.052979
2019-02-10T14:37:38.192Z,48.052979
2019-02-10T14:37:46.109Z,48.052979
2019-02-10T14:37:54.006Z,48.052979
2019-02-10T14:38:03.099Z,47.955322
2019-02-10T14:38:11.409Z,47.955322
2019-02-10T14:38:19.270Z,47.955322
2019-02-10T14:38:36.001Z,47.955322
2019-02-10T14:38:41.106Z,47.955322
2019-02-10T14:38:49.000Z,47.955322
2019-02-10T14:38:57.014Z,47.851562
2019-02-10T14:39:04.932Z,47.851562
2019-02-10T14:39:12.831Z,47.851562
2019-02-10T14:39:21.714Z,47.851562
2019-02-10T14:39:29.678Z,47.851562
2019-02-10T14:39:37.572Z,47.851562
2019-02-10T14:39:45.482Z,47.851562
2019-02-10T14:39:53.442Z,47.851562
2019-02-10T14:40:01.327Z,47.851562
2019-02-10T14:40:10.259Z,47.851562
2019-02-10T14:40:18.112Z,47.851562
2019-02-10T14:40:33.397Z,47.851562
2019-02-10T14:40:37.880Z,47.851562
2019-02-10T14:40:45.740Z,47.851562
2019-02-10T14:40:53.612Z,47.851562
2019-02-10T14:41:01.514Z,47.851562
2019-02-10T14:41:09.463Z,47.851562
2019-02-10T14:41:17.492Z,47.955322
2019-02-10T14:41:25.379Z,47.851562
2019-02-10T14:41:34.290Z,47.955322
2019-02-10T14:41:42.172Z,47.955322
2019-02-10T14:41:50.092Z,47.955322
2019-02-10T14:41:57.996Z,47.955322
2019-02-10T14:42:05.884Z,47.851562
2019-02-10T14:42:13.745Z,47.851562
2019-02-10T14:42:21.627Z,47.851562
2019-02-10T14:42:29.529Z,47.851562
2019-02-10T14:42:37.447Z,47.955322
2019-02-10T14:42:45.351Z,48.052979
2019-02-10T14:42:53.301Z,48.052979
2019-02-10T14:43:01.156Z,47.955322
2019-02-10T14:43:09.060Z,47.955322
2019-02-10T14:43:16.937Z,47.955322
2019-02-10T14:43:24.799Z,47.955322
2019-02-10T14:43:32.688Z,47.955322
2019-02-10T14:43:40.639Z,47.955322
2019-02-10T14:43:48.518Z,47.955322
2019-02-10T14:43:56.410Z,47.955322
2019-02-10T14:44:04.285Z,47.955322
2019-02-10T14:44:13.157Z,47.955322
2019-02-10T14:44:21.057Z,47.930908
2019-02-10T14:44:28.929Z,47.851562
2019-02-10T14:44:36.806Z,47.851562
2019-02-10T14:44:45.712Z,47.955322
2019-02-10T14:44:53.602Z,47.955322
2019-02-10T14:45:01.499Z,47.851562
2019-02-10T14:45:09.426Z,47.851562
2019-02-10T14:45:18.304Z,47.827148
2019-02-10T14:45:26.202Z,47.851562
2019-02-10T14:45:34.146Z,47.851562
2019-02-10T14:45:43.023Z,47.827148
2019-02-10T14:45:50.994Z,47.827148
2019-02-10T14:45:58.994Z,47.851562
2019-02-10T14:46:06.894Z,47.827148
2019-02-10T14:46:14.764Z,47.827148
2019-02-10T14:46:22.700Z,47.827148
2019-02-10T14:46:30.578Z,47.827148
2019-02-10T14:46:38.516Z,47.827148
2019-02-10T14:46:46.417Z,47.930908
2019-02-10T14:46:55.038Z,47.930908
2019-02-10T14:47:02.915Z,47.930908
2019-02-10T14:47:10.822Z,47.930908
2019-02-10T14:47:18.704Z,47.930908
2019-02-10T14:47:26.599Z,47.930908
2019-02-10T14:47:34.472Z,47.930908
2019-02-10T14:47:42.442Z,47.930908
2019-02-10T14:47:50.321Z,47.930908
2019-02-10T14:47:58.228Z,47.930908
2019-02-10T14:48:06.114Z,47.930908
2019-02-10T14:48:13.981Z,47.930908
2019-02-10T14:48:21.854Z,47.930908
2019-02-10T14:48:29.743Z,47.930908
2019-02-10T14:48:37.639Z,47.930908
2019-02-10T14:48:45.670Z,47.930908
2019-02-10T14:48:53.639Z,47.930908
2019-02-10T14:49:01.531Z,47.930908
2019-02-10T14:49:09.452Z,47.930908
2019-02-10T14:49:17.382Z,47.827148
2019-02-10T14:49:25.321Z,47.827148
2019-02-10T14:49:33.220Z,47.930908
2019-02-10T14:49:41.121Z,48.028564
2019-02-10T14:49:49.068Z,47.930908
2019-02-10T14:49:56.995Z,48.028564
2019-02-10T14:50:04.875Z,48.028564
2019-02-10T14:50:12.756Z,48.132324
2019-02-10T14:50:20.624Z,48.22998
2019-02-10T14:50:29.521Z,48.33374
2019-02-10T14:50:37.431Z,48.529053
2019-02-10T14:50:45.356Z,48.632812
2019-02-10T14:50:53.239Z,48.632812
2019-02-10T14:51:01.186Z,48.632812
2019-02-10T14:51:09.074Z,48.730469
2019-02-10T14:51:16.985Z,48.730469
2019-02-10T14:51:24.854Z,48.730469
2019-02-10T14:51:32.733Z,48.632812
2019-02-10T14:51:40.687Z,48.632812
2019-02-10T14:51:48.590Z,48.834229
2019-02-10T14:51:56.501Z,48.834229
2019-02-10T14:52:04.389Z,48.730469
2019-02-10T14:52:12.313Z,48.834229
2019-02-10T14:52:20.214Z,48.931885
2019-02-10T14:52:28.089Z,48.834229
2019-02-10T14:52:36.119Z,48.730469
2019-02-10T14:52:43.995Z,48.730469
2019-02-10T14:52:51.883Z,48.632812
2019-02-10T14:52:59.808Z,48.529053
2019-02-10T14:53:07.786Z,48.529053
2019-02-10T14:53:15.717Z,48.529053
2019-02-10T14:53:23.609Z,48.431396
2019-02-10T14:53:32.483Z,48.431396
2019-02-10T14:53:40.433Z,48.431396
2019-02-10T14:53:48.365Z,48.431396
2019-02-10T14:53:56.341Z,48.529053
2019-02-10T14:54:04.375Z,48.529053
2019-02-10T14:54:12.261Z,48.529053
2019-02-10T14:54:20.167Z,48.529053
2019-02-10T14:54:28.084Z,48.529053
2019-02-10T14:54:36.093Z,48.529053
2019-02-10T14:54:44.002Z,48.632812
2019-02-10T14:54:51.919Z,48.632812
2019-02-10T14:54:59.826Z,48.632812
2019-02-10T14:55:07.732Z,48.529053
2019-02-10T14:55:15.671Z,48.632812
2019-02-10T14:55:23.551Z,48.529053
2019-02-10T14:55:31.447Z,48.529053
2019-02-10T14:55:40.349Z,48.431396
2019-02-10T14:55:48.233Z,48.431396
2019-02-10T14:55:56.137Z,48.431396
2019-02-10T14:56:04.038Z,48.431396
2019-02-10T14:56:12.966Z,48.431396
2019-02-10T14:56:20.895Z,48.431396
2019-02-10T14:56:28.830Z,48.431396
2019-02-10T14:56:36.768Z,48.431396
2019-02-10T14:56:44.735Z,48.529053
2019-02-10T14:56:52.666Z,48.529053
2019-02-10T14:57:00.561Z,48.529053
2019-02-10T14:57:08.495Z,48.529053
2019-02-10T14:57:16.424Z,48.529053
2019-02-10T14:57:24.302Z,48.632812
2019-02-10T14:57:32.221Z,48.632812
2019-02-10T14:57:40.119Z,48.529053
2019-02-10T14:57:48.047Z,48.529053
2019-02-10T14:57:55.960Z,48.632812
2019-02-10T14:58:03.885Z,48.730469
2019-02-10T14:58:11.849Z,48.730469
2019-02-10T14:58:19.768Z,48.632812
2019-02-10T14:58:27.712Z,48.632812
2019-02-10T14:58:42.888Z,48.632812
2019-02-10T14:58:47.537Z,48.730469
2019-02-10T14:58:55.404Z,48.730469
2019-02-10T14:59:03.269Z,48.730469
2019-02-10T14:59:11.193Z,48.730469
2019-02-10T14:59:19.054Z,48.529053
2019-02-10T14:59:26.953Z,48.529053
2019-02-10T14:59:34.863Z,48.632812
2019-02-10T14:59:43.858Z,48.730469
2019-02-10T14:59:51.781Z,48.730469
2019-02-10T14:59:59.677Z,48.730469
2019-02-10T15:00:07.587Z,48.730469
2019-02-10T15:00:15.505Z,48.730469
2019-02-10T15:00:23.401Z,48.730469
2019-02-10T15:00:31.332Z,48.834229
2019-02-10T15:00:39.249Z,48.834229
2019-02-10T15:00:47.160Z,48.834229
2019-02-10T15:00:55.100Z,48.834229
2019-02-10T15:01:02.995Z,48.834229
2019-02-10T15:01:10.889Z,48.834229
2019-02-10T15:01:18.889Z,48.834229
2019-02-10T15:01:26.813Z,48.931885
2019-02-10T15:01:34.770Z,48.931885
2019-02-10T15:01:43.023Z,48.931885
2019-02-10T15:01:50.858Z,49.035645
2019-02-10T15:01:58.805Z,49.133301
2019-02-10T15:02:06.722Z,49.230957
2019-02-10T15:02:14.746Z,49.230957
2019-02-10T15:02:22.671Z,49.133301
2019-02-10T15:02:30.634Z,49.133301
2019-02-10T15:02:38.550Z,49.133301
2019-02-10T15:02:46.454Z,49.334717
2019-02-10T15:02:54.335Z,49.432373
2019-02-10T15:03:02.295Z,49.432373
2019-02-10T15:03:10.213Z,49.536133
2019-02-10T15:03:18.114Z,49.432373
2019-02-10T15:03:27.001Z,49.432373
2019-02-10T15:03:34.902Z,49.334717
2019-02-10T15:03:42.849Z,49.334717
2019-02-10T15:03:50.787Z,49.230957
2019-02-10T15:03:58.717Z,49.230957
2019-02-10T15:04:06.618Z,49.334717
2019-02-10T15:04:14.549Z,49.432373
2019-02-10T15:04:23.522Z,49.432373
2019-02-10T15:04:31.438Z,49.432373
2019-02-10T15:04:39.344Z,49.334717
2019-02-10T15:04:47.326Z,49.334717
2019-02-10T15:04:55.211Z,49.334717
2019-02-10T15:05:03.148Z,49.230957
2019-02-10T15:05:12.063Z,49.230957
2019-02-10T15:05:20.945Z,49.230957
2019-02-10T15:05:28.892Z,49.230957
2019-02-10T15:05:36.910Z,49.230957
2019-02-10T15:05:44.873Z,49.230957
2019-02-10T15:05:52.771Z,49.230957
2019-02-10T15:06:00.728Z,49.230957
2019-02-10T15:06:08.626Z,49.230957
2019-02-10T15:06:16.555Z,49.230957
2019-02-10T15:06:24.500Z,49.334717
2019-02-10T15:06:32.481Z,49.334717
2019-02-10T15:06:40.421Z,49.230957
2019-02-10T15:06:48.320Z,49.334717
2019-02-10T15:06:56.238Z,49.334717
2019-02-10T15:07:04.149Z,49.230957
2019-02-10T15:07:13.040Z,49.230957
2019-02-10T15:07:25.930Z,49.133301
2019-02-10T15:07:33.840Z,49.133301
2019-02-10T15:07:42.804Z,49.133301
2019-02-10T15:07:50.685Z,49.133301
2019-02-10T15:07:58.684Z,49.133301
2019-02-10T15:08:06.743Z,49.133301
2019-02-10T15:08:14.633Z,49.133301
2019-02-10T15:08:22.640Z,49.133301
2019-02-10T15:08:30.639Z,49.230957
2019-02-10T15:08:38.491Z,49.230957
2019-02-10T15:08:46.396Z,49.334717
2019-02-10T15:08:54.302Z,49.432373
2019-02-10T15:09:02.193Z,49.432373
2019-02-10T15:09:10.074Z,49.432373
2019-02-10T15:09:18.023Z,49.334717
2019-02-10T15:09:25.896Z,49.334717
2019-02-10T15:09:33.853Z,49.230957
2019-02-10T15:09:41.779Z,49.230957
2019-02-10T15:09:49.775Z,49.230957
2019-02-10T15:09:57.807Z,49.230957
2019-02-10T15:10:05.725Z,49.230957
2019-02-10T15:10:14.754Z,49.230957
2019-02-10T15:10:22.635Z,49.230957
2019-02-10T15:10:30.525Z,49.230957
2019-02-10T15:10:42.531Z,49.230957
2019-02-10T15:10:50.463Z,49.230957
2019-02-10T15:10:58.339Z,49.334717
2019-02-10T15:11:06.222Z,49.230957
2019-02-10T15:11:15.126Z,49.230957
2019-02-10T15:11:23.110Z,49.334717
2019-02-10T15:11:31.016Z,49.334717
2019-02-10T15:11:38.909Z,49.334717
2019-02-10T15:11:48.760Z,49.334717
2019-02-10T15:11:56.676Z,49.230957
2019-02-10T15:12:05.611Z,49.230957
2019-02-10T15:12:14.505Z,49.334717
2019-02-10T15:12:22.371Z,49.334717
2019-02-10T15:12:31.140Z,49.334717
2019-02-10T15:12:38.209Z,49.230957
2019-02-10T15:12:46.121Z,49.334717
2019-02-10T15:12:54.141Z,49.334717
2019-02-10T15:13:02.997Z,49.334717
2019-02-10T15:13:10.895Z,49.230957
2019-02-10T15:13:18.764Z,49.230957
2019-02-10T15:13:26.673Z,49.334717
2019-02-10T15:13:34.576Z,49.334717
2019-02-10T15:13:42.473Z,49.334717
2019-02-10T15:13:50.356Z,49.334717
2019-02-10T15:13:58.224Z,49.334717
2019-02-10T15:14:06.128Z,49.334717
2019-02-10T15:14:14.111Z,49.334717
2019-02-10T15:14:22.015Z,49.432373
2019-02-10T15:14:30.860Z,49.432373
2019-02-10T15:14:38.765Z,49.432373
2019-02-10T15:14:46.695Z,49.432373
2019-02-10T15:14:54.623Z,49.334717
2019-02-10T15:15:02.570Z,49.310303
2019-02-10T15:15:10.488Z,49.432373
2019-02-10T15:15:18.388Z,49.334717
2019-02-10T15:15:26.287Z,49.334717
2019-02-10T15:15:34.187Z,49.212646
2019-02-10T15:15:42.093Z,49.230957
2019-02-10T15:15:49.997Z,49.334717
2019-02-10T15:15:57.929Z,49.334717
2019-02-10T15:16:05.821Z,49.432373
2019-02-10T15:16:14.731Z,49.432373
2019-02-10T15:16:22.635Z,49.334717
2019-02-10T15:16:30.587Z,49.310303
2019-02-10T15:16:39.607Z,49.334717
2019-02-10T15:16:48.516Z,49.334717
2019-02-10T15:16:56.471Z,49.334717
2019-02-10T15:17:04.450Z,49.310303
2019-02-10T15:17:12.371Z,49.310303
2019-02-10T15:17:20.278Z,49.334717
2019-02-10T15:17:29.798Z,49.310303
2019-02-10T15:17:37.185Z,49.310303
2019-02-10T15:17:46.079Z,49.310303
2019-02-10T15:17:53.993Z,49.334717
2019-02-10T15:18:02.915Z,49.310303
2019-02-10T15:18:10.895Z,49.310303
2019-02-10T15:18:18.820Z,49.310303
2019-02-10T15:18:26.749Z,49.310303
2019-02-10T15:18:34.768Z,49.310303
2019-02-10T15:18:42.768Z,49.432373
2019-02-10T15:18:50.677Z,49.407959
2019-02-10T15:18:58.655Z,49.407959
2019-02-10T15:19:06.663Z,49.407959
2019-02-10T15:19:14.573Z,49.407959
2019-02-10T15:19:22.686Z,49.407959
2019-02-10T15:19:30.973Z,49.407959
2019-02-10T15:19:39.153Z,49.407959
2019-02-10T15:19:48.282Z,49.407959
2019-02-10T15:19:56.185Z,49.310303
2019-02-10T15:20:04.064Z,49.310303
2019-02-10T15:20:11.959Z,49.310303
2019-02-10T15:20:20.952Z,49.310303
2019-02-10T15:20:28.902Z,49.310303
2019-02-10T15:20:36.798Z,49.310303
2019-02-10T15:20:44.749Z,49.310303
2019-02-10T15:20:52.691Z,49.212646
2019-02-10T15:21:00.675Z,49.108887
2019-02-10T15:21:08.591Z,49.108887
2019-02-10T15:21:16.515Z,49.01123
2019-02-10T15:21:24.572Z,49.01123
2019-02-10T15:21:32.468Z,49.108887
2019-02-10T15:21:40.373Z,49.108887
2019-02-10T15:21:49.384Z,49.108887
2019-02-10T15:21:57.315Z,49.108887
2019-02-10T15:22:05.213Z,49.212646
2019-02-10T15:22:14.099Z,49.212646
2019-02-10T15:22:22.009Z,49.212646
2019-02-10T15:22:29.987Z,49.212646
2019-02-10T15:22:38.941Z,49.212646
2019-02-10T15:22:46.805Z,49.212646
2019-02-10T15:22:54.712Z,49.212646
2019-02-10T15:23:02.637Z,49.212646
2019-02-10T15:23:10.558Z,49.212646
2019-02-10T15:23:19.487Z,49.310303
2019-02-10T15:23:27.406Z,49.407959
2019-02-10T15:23:35.378Z,49.407959
2019-02-10T15:23:43.302Z,49.407959
2019-02-10T15:23:51.213Z,49.407959
2019-02-10T15:23:59.187Z,49.310303
2019-02-10T15:24:08.083Z,49.310303
2019-02-10T15:24:15.993Z,49.212646
2019-02-10T15:24:24.902Z,49.212646
2019-02-10T15:24:33.775Z,49.108887
2019-02-10T15:24:41.835Z,49.212646
2019-02-10T15:24:49.690Z,49.108887
2019-02-10T15:24:57.716Z,49.212646
2019-02-10T15:25:05.635Z,49.212646
2019-02-10T15:25:13.593Z,49.212646
2019-02-10T15:25:23.527Z,49.407959
2019-02-10T15:25:32.397Z,49.511719
2019-02-10T15:25:40.299Z,49.511719
2019-02-10T15:25:49.187Z,49.407959
2019-02-10T15:25:57.070Z,49.310303
2019-02-10T15:26:05.958Z,49.212646
2019-02-10T15:26:13.876Z,49.212646
2019-02-10T15:26:21.821Z,49.212646
2019-02-10T15:26:29.732Z,49.310303
2019-02-10T15:26:37.745Z,49.407959
2019-02-10T15:26:45.645Z,49.407959
2019-02-10T15:26:53.780Z,49.310303
2019-02-10T15:27:02.680Z,49.310303
2019-02-10T15:27:10.598Z,49.212646
2019-02-10T15:27:18.515Z,49.212646
2019-02-10T15:27:26.440Z,49.108887
2019-02-10T15:27:34.382Z,49.108887
2019-02-10T15:27:42.298Z,49.01123
2019-02-10T15:27:51.270Z,49.01123
2019-02-10T15:27:59.845Z,49.108887
2019-02-10T15:28:07.805Z,49.212646
2019-02-10T15:28:15.706Z,49.407959
2019-02-10T15:28:23.663Z,49.511719
2019-02-10T15:28:31.574Z,49.511719
2019-02-10T15:28:40.467Z,49.511719
2019-02-10T15:28:48.445Z,49.407959
2019-02-10T15:28:56.368Z,49.310303
2019-02-10T15:29:04.345Z,49.212646
2019-02-10T15:29:12.276Z,49.212646
2019-02-10T15:29:21.193Z,49.108887
2019-02-10T15:29:29.128Z,49.01123
2019-02-10T15:29:37.194Z,49.01123
2019-02-10T15:29:45.137Z,49.01123
2019-02-10T15:29:53.109Z,49.01123
2019-02-10T15:30:01.069Z,49.01123
2019-02-10T15:30:08.944Z,49.108887
2019-02-10T15:30:16.954Z,49.108887
2019-02-10T15:30:24.855Z,49.108887
2019-02-10T15:30:32.779Z,49.108887
2019-02-10T15:30:40.757Z,49.108887
2019-02-10T15:30:48.675Z,49.01123
2019-02-10T15:30:56.684Z,49.01123
2019-02-10T15:31:04.578Z,49.108887
2019-02-10T15:31:12.491Z,49.108887
2019-02-10T15:31:20.385Z,49.108887
2019-02-10T15:31:28.346Z,49.212646
2019-02-10T15:31:36.299Z,49.212646
2019-02-10T15:31:44.178Z,49.212646
2019-02-10T15:31:53.122Z,49.108887
2019-02-10T15:32:02.044Z,49.212646
2019-02-10T15:32:16.575Z,49.108887
2019-02-10T15:32:21.924Z,49.01123
2019-02-10T15:32:29.861Z,49.01123
2019-02-10T15:32:37.765Z,49.108887
2019-02-10T15:32:45.685Z,49.108887
2019-02-10T15:32:53.601Z,49.108887
2019-02-10T15:33:02.540Z,49.108887
2019-02-10T15:33:11.442Z,49.108887
2019-02-10T15:33:19.374Z,49.108887
2019-02-10T15:33:27.316Z,49.01123
2019-02-10T15:33:35.282Z,49.01123
2019-02-10T15:33:43.282Z,49.108887
2019-02-10T15:33:51.632Z,49.01123
2019-02-10T15:33:59.530Z,49.01123
2019-02-10T15:34:09.233Z,49.108887
2019-02-10T15:34:20.890Z,49.108887
2019-02-10T15:34:33.683Z,49.212646
2019-02-10T15:34:46.219Z,49.212646
2019-02-10T15:34:54.889Z,49.108887
2019-02-10T15:35:03.735Z,49.108887
2019-02-10T15:35:15.041Z,49.108887
2019-02-10T15:35:26.125Z,49.108887
2019-02-10T15:35:35.295Z,49.108887
2019-02-10T15:35:44.468Z,49.108887
2019-02-10T15:35:52.358Z,49.01123
2019-02-10T15:36:00.294Z,49.01123
2019-02-10T15:36:08.161Z,49.01123
2019-02-10T15:36:16.973Z,49.108887
2019-02-10T15:36:28.725Z,49.108887
2019-02-10T15:36:37.262Z,49.108887
2019-02-10T15:36:45.200Z,49.108887
2019-02-10T15:36:53.121Z,49.108887
2019-02-10T15:37:01.051Z,49.108887
2019-02-10T15:37:09.993Z,49.108887
2019-02-10T15:37:18.703Z,49.108887
2019-02-10T15:37:28.245Z,49.01123
2019-02-10T15:37:37.202Z,49.01123
2019-02-10T15:37:45.185Z,49.01123
2019-02-10T15:37:53.100Z,49.108887
2019-02-10T15:38:02.326Z,49.108887
2019-02-10T15:38:13.511Z,49.01123
2019-02-10T15:38:23.934Z,49.01123
2019-02-10T15:38:32.002Z,49.108887
2019-02-10T15:38:40.715Z,49.01123
2019-02-10T15:38:48.589Z,49.01123
2019-02-10T15:38:56.543Z,49.01123
2019-02-10T15:39:04.513Z,49.01123
2019-02-10T15:39:12.531Z,49.01123
2019-02-10T15:39:24.441Z,49.01123
2019-02-10T15:39:34.596Z,49.01123
2019-02-10T15:39:42.488Z,49.01123
2019-02-10T15:39:50.468Z,48.907471
2019-02-10T15:39:58.371Z,49.01123
2019-02-10T15:40:06.395Z,48.907471
2019-02-10T15:40:14.449Z,49.01123
2019-02-10T15:40:22.334Z,49.01123
2019-02-10T15:40:30.255Z,49.01123
2019-02-10T15:40:38.178Z,48.907471
2019-02-10T15:40:51.103Z,48.907471
2019-02-10T15:40:58.963Z,48.907471
2019-02-10T15:41:06.867Z,48.907471
2019-02-10T15:41:14.730Z,48.907471
2019-02-10T15:41:22.587Z,48.907471
2019-02-10T15:41:31.547Z,48.907471
2019-02-10T15:41:39.561Z,48.907471
2019-02-10T15:41:47.486Z,48.907471
2019-02-10T15:41:56.410Z,48.907471
2019-02-10T15:42:09.339Z,48.907471
2019-02-10T15:42:16.219Z,48.907471
2019-02-10T15:42:24.224Z,48.907471
2019-02-10T15:42:32.148Z,48.907471
2019-02-10T15:42:40.098Z,48.907471
2019-02-10T15:42:47.978Z,48.907471
2019-02-10T15:42:55.866Z,48.907471
2019-02-10T15:43:03.785Z,48.907471
2019-02-10T15:43:11.681Z,48.907471
2019-02-10T15:43:19.611Z,48.907471
2019-02-10T15:43:27.489Z,48.907471
2019-02-10T15:43:35.353Z,48.907471
2019-02-10T15:43:43.338Z,48.907471
2019-02-10T15:43:51.263Z,48.907471
2019-02-10T15:43:59.203Z,48.907471
2019-02-10T15:44:07.112Z,48.907471
2019-02-10T15:44:14.998Z,48.907471
2019-02-10T15:44:22.888Z,48.809814
2019-02-10T15:44:30.761Z,48.809814
2019-02-10T15:44:38.676Z,48.809814
2019-02-10T15:44:48.533Z,48.809814
2019-02-10T15:44:56.465Z,48.809814
2019-02-10T15:45:04.346Z,48.809814
2019-02-10T15:45:13.212Z,48.809814
2019-02-10T15:45:22.160Z,48.809814
2019-02-10T15:45:30.075Z,48.712158
2019-02-10T15:45:37.944Z,48.712158
2019-02-10T15:45:45.818Z,48.712158
2019-02-10T15:45:53.725Z,48.809814
2019-02-10T15:46:01.579Z,48.712158
2019-02-10T15:46:09.450Z,48.809814
2019-02-10T15:46:17.346Z,48.809814
2019-02-10T15:46:25.239Z,48.809814
2019-02-10T15:46:33.126Z,48.809814
2019-02-10T15:46:41.032Z,48.809814
2019-02-10T15:46:48.968Z,48.809814
2019-02-10T15:46:56.926Z,48.712158
2019-02-10T15:47:04.843Z,48.712158
2019-02-10T15:47:12.735Z,48.608398
2019-02-10T15:47:20.629Z,48.510742
2019-02-10T15:47:28.526Z,48.510742
2019-02-10T15:47:36.456Z,48.608398
2019-02-10T15:47:44.349Z,48.712158
2019-02-10T15:47:52.247Z,48.712158
2019-02-10T15:48:00.194Z,48.712158
2019-02-10T15:48:10.062Z,48.712158
2019-02-10T15:48:18.092Z,48.809814
2019-02-10T15:48:25.979Z,48.712158
2019-02-10T15:48:33.959Z,48.608398
2019-02-10T15:48:41.854Z,48.712158
2019-02-10T15:48:49.751Z,48.712158
2019-02-10T15:48:57.632Z,48.809814
2019-02-10T15:49:05.558Z,48.809814
2019-02-10T15:49:14.448Z,48.809814
2019-02-10T15:49:22.328Z,48.712158
2019-02-10T15:49:30.188Z,48.712158
2019-02-10T15:49:38.106Z,48.809814
2019-02-10T15:49:46.026Z,48.809814
2019-02-10T15:49:54.942Z,48.809814
2019-02-10T15:50:03.888Z,48.809814
2019-02-10T15:50:11.710Z,48.809814
2019-02-10T15:50:19.614Z,48.809814
2019-02-10T15:50:27.483Z,48.907471
2019-02-10T15:50:35.360Z,48.907471
2019-02-10T15:50:43.227Z,48.809814
2019-02-10T15:50:51.146Z,48.809814
2019-02-10T15:50:59.060Z,48.809814
2019-02-10T15:51:06.943Z,48.907471
2019-02-10T15:51:14.824Z,48.809814
2019-02-10T15:51:31.472Z,48.809814
2019-02-10T15:51:38.574Z,48.712158
2019-02-10T15:51:46.508Z,48.712158
2019-02-10T15:51:54.377Z,48.712158
2019-02-10T15:52:02.284Z,48.712158
2019-02-10T15:52:10.217Z,48.809814
2019-02-10T15:52:19.102Z,48.712158
2019-02-10T15:52:27.017Z,48.712158
2019-02-10T15:52:34.907Z,48.712158
2019-02-10T15:52:42.873Z,48.712158
2019-02-10T15:52:50.773Z,48.712158
2019-02-10T15:52:58.682Z,48.608398
2019-02-10T15:53:06.655Z,48.510742
2019-02-10T15:53:14.641Z,48.510742
2019-02-10T15:53:22.582Z,48.608398
2019-02-10T15:53:30.580Z,48.510742
2019-02-10T15:53:38.511Z,48.510742
2019-02-10T15:53:46.428Z,48.510742
2019-02-10T15:53:54.302Z,48.510742
2019-02-10T15:54:02.211Z,48.510742
2019-02-10T15:54:11.097Z,48.406982
2019-02-10T15:54:19.216Z,48.406982
2019-02-10T15:54:27.120Z,48.406982
2019-02-10T15:54:35.009Z,48.406982
2019-02-10T15:54:42.941Z,48.309326
2019-02-10T15:54:50.853Z,48.309326
2019-02-10T15:54:58.835Z,48.309326
2019-02-10T15:55:06.746Z,48.382568
2019-02-10T15:55:14.629Z,48.406982
2019-02-10T15:55:22.539Z,48.309326
2019-02-10T15:55:30.434Z,48.309326
2019-02-10T15:55:38.488Z,48.309326
2019-02-10T15:55:46.384Z,48.309326
2019-02-10T15:55:54.342Z,48.309326
2019-02-10T15:56:02.242Z,48.284912
2019-02-10T15:56:10.126Z,48.284912
2019-02-10T15:56:18.015Z,48.284912
2019-02-10T15:56:25.958Z,48.284912
2019-02-10T15:56:33.900Z,48.205566
2019-02-10T15:56:41.826Z,48.187256
2019-02-10T15:56:49.800Z,48.187256
2019-02-10T15:56:57.698Z,48.083496
2019-02-10T15:57:06.567Z,48.083496
2019-02-10T15:57:14.447Z,48.083496
2019-02-10T15:57:22.378Z,48.083496
2019-02-10T15:57:30.324Z,47.98584
2019-02-10T15:57:38.219Z,47.98584
2019-02-10T15:57:46.147Z,47.88208
2019-02-10T15:57:54.054Z,47.98584
2019-02-10T15:58:01.946Z,47.98584
2019-02-10T15:58:09.888Z,47.98584
2019-02-10T15:58:18.814Z,47.98584
2019-02-10T15:58:27.794Z,47.98584
2019-02-10T15:58:35.699Z,47.98584
2019-02-10T15:58:44.613Z,47.98584
2019-02-10T15:58:53.548Z,47.98584
2019-02-10T15:59:01.466Z,47.98584
2019-02-10T15:59:09.367Z,47.98584
2019-02-10T15:59:17.290Z,47.98584
2019-02-10T15:59:25.200Z,47.98584
2019-02-10T15:59:33.103Z,47.98584
2019-02-10T15:59:41.014Z,47.98584
2019-02-10T15:59:49.001Z,47.98584
2019-02-10T15:59:56.908Z,47.98584
2019-02-10T16:00:04.819Z,47.88208
2019-02-10T16:00:12.701Z,47.88208
2019-02-10T16:00:20.598Z,47.88208
2019-02-10T16:00:29.490Z,47.88208
2019-02-10T16:00:37.454Z,47.88208
2019-02-10T16:00:45.331Z,47.88208
2019-02-10T16:00:53.238Z,47.88208
2019-02-10T16:01:02.172Z,47.88208
2019-02-10T16:01:10.072Z,47.98584
2019-02-10T16:01:17.950Z,47.98584
2019-02-10T16:01:25.861Z,47.98584
2019-02-10T16:01:33.798Z,47.88208
2019-02-10T16:01:41.796Z,47.88208
2019-02-10T16:01:49.716Z,47.784424
2019-02-10T16:01:57.713Z,47.784424